Time;durP1;ratioP1;P1;durP2;ratioP2;P2;SDS_P1;SDS_P2;PMS_P1;PMS_P2;Temp;Humidity;BMP_temperature;BMP_pressure;BME280_temperature;BME280_humidity;BME280_pressure;Samples;Min_cycle;Max_cycle;Signal;HPM_P1;HPM_P2
2023/01/10 00:01:39;;;;;;;5.75;1.50;;;23.00;59.40;;;;;;5090629;28;20047;-73
2023/01/10 00:04:05;;;;;;;2.45;0.60;;;23.10;59.40;;;;;;5092412;28;20082;-73
2023/01/10 00:06:31;;;;;;;3.42;1.42;;;22.90;59.50;;;;;;5093188;28;20040;-74
2023/01/10 00:08:57;;;;;;;3.13;1.45;;;23.00;58.60;;;;;;5093847;28;20422;-74
2023/01/10 00:14:08;;;;;;;4.32;1.25;;;23.00;58.90;;;;;;5073011;28;20097;-74
2023/01/10 00:16:35;;;;;;;3.20;0.95;;;23.10;59.50;;;;;;5071110;28;20103;-74
2023/01/10 00:19:01;;;;;;;5.20;1.45;;;23.00;59.40;;;;;;5073212;28;20406;-74
2023/01/10 00:21:29;;;;;;;4.03;1.20;;;23.10;58.80;;;;;;5071372;28;20033;-73
2023/01/10 00:23:58;;;;;;;6.10;1.10;;;23.10;57.60;;;;;;5072039;28;20047;-73
2023/01/10 00:26:24;;;;;;;1.17;0.80;;;23.20;59.10;;;;;;5072007;28;20484;-74
2023/01/10 00:28:51;;;;;;;6.85;1.58;;;23.20;58.90;;;;;;5072752;28;20032;-73
2023/01/10 00:31:17;;;;;;;4.38;1.42;;;23.20;58.90;;;;;;5070753;28;20123;-73
2023/01/10 00:33:43;;;;;;;2.88;1.27;;;23.00;58.40;;;;;;5073004;28;20041;-73
2023/01/10 00:36:09;;;;;;;3.80;1.20;;;23.00;58.20;;;;;;5033794;28;20103;-74
2023/01/10 00:38:35;;;;;;;7.93;1.60;;;22.90;59.00;;;;;;5051975;28;20090;-73
2023/01/10 00:41:02;;;;;;;5.72;1.38;;;23.00;59.10;;;;;;5052773;28;20082;-74
2023/01/10 00:46:13;;;;;;;3.00;1.30;;;23.10;58.90;;;;;;5070541;28;20040;-74
2023/01/10 00:48:40;;;;;;;3.22;1.13;;;23.00;59.20;;;;;;5072853;28;20036;-73
2023/01/10 00:51:06;;;;;;;5.25;1.08;;;23.00;57.50;;;;;;5068226;28;20066;-74
2023/01/10 00:53:32;;;;;;;5.07;1.13;;;22.90;59.30;;;;;;5040394;28;20438;-74
2023/01/10 00:55:58;;;;;;;1.30;0.75;;;23.00;59.10;;;;;;5052534;28;20064;-74
2023/01/10 00:58:24;;;;;;;2.38;1.02;;;23.00;59.00;;;;;;5052389;28;20151;-74
2023/01/10 01:00:50;;;;;;;2.97;1.30;;;23.00;58.50;;;;;;5056996;28;20029;-74
2023/01/10 01:03:18;;;;;;;5.53;1.17;;;22.90;59.00;;;;;;5069766;28;20568;-74
2023/01/10 01:05:45;;;;;;;2.55;1.10;;;22.90;58.40;;;;;;5067093;28;20074;-74
2023/01/10 01:08:13;;;;;;;0.52;0.50;;;23.10;58.90;;;;;;5051564;28;20072;-74
2023/01/10 01:10:39;;;;;;;2.40;1.15;;;23.00;58.60;;;;;;5051636;28;20049;-74
2023/01/10 01:13:17;;;;;;;2.53;1.50;;;23.10;58.60;;;;;;5052441;28;20375;-74
2023/01/10 01:15:44;;;;;;;5.65;1.40;;;22.90;57.20;;;;;;5051362;28;20079;-73
2023/01/10 01:18:16;;;;;;;3.08;0.82;;;22.90;58.90;;;;;;5034441;28;20037;-74
2023/01/10 01:20:44;;;;;;;5.43;1.27;;;22.80;58.00;;;;;;5052859;28;20027;-74
2023/01/10 01:23:11;;;;;;;3.47;1.10;;;22.80;58.50;;;;;;5052045;28;20037;-74
2023/01/10 01:25:37;;;;;;;3.45;1.35;;;22.80;58.60;;;;;;5058521;28;20428;-74
2023/01/10 01:28:03;;;;;;;6.03;1.35;;;22.90;59.30;;;;;;5072095;28;20075;-71
2023/01/10 01:30:30;;;;;;;6.63;1.70;;;22.80;57.30;;;;;;5052401;28;20021;-73
2023/01/10 01:32:56;;;;;;;4.60;1.27;;;22.70;58.90;;;;;;5072043;28;20032;-74
2023/01/10 01:35:23;;;;;;;1.40;0.90;;;22.80;57.20;;;;;;5070537;28;20036;-74
2023/01/10 01:37:50;;;;;;;2.85;1.10;;;22.70;58.70;;;;;;5053887;28;20115;-74
2023/01/10 01:40:19;;;;;;;3.72;1.23;;;22.70;59.20;;;;;;5052938;28;20387;-73
2023/01/10 01:42:46;;;;;;;4.72;1.50;;;22.70;58.80;;;;;;5071359;28;20017;-73
2023/01/10 01:45:32;;;;;;;5.07;1.15;;;22.70;59.10;;;;;;5064618;28;20021;-74
2023/01/10 01:48:09;;;;;;;2.88;1.48;;;22.70;59.50;;;;;;5069920;28;20090;-73
2023/01/10 01:50:35;;;;;;;5.32;1.10;;;22.70;58.20;;;;;;5070091;28;20027;-74
2023/01/10 01:53:06;;;;;;;4.80;1.25;;;22.70;58.50;;;;;;5070382;28;20044;-73
2023/01/10 01:55:33;;;;;;;3.63;1.30;;;22.70;59.60;;;;;;5071069;28;20064;-74
2023/01/10 01:58:02;;;;;;;5.43;1.30;;;22.70;58.60;;;;;;5057458;28;20072;-73
2023/01/10 02:00:28;;;;;;;6.72;1.48;;;22.60;59.60;;;;;;5053448;28;20029;-73
2023/01/10 02:02:58;;;;;;;4.72;1.48;;;22.70;58.20;;;;;;5071262;28;20029;-74
2023/01/10 02:05:25;;;;;;;2.03;1.02;;;22.60;58.40;;;;;;5069838;28;20025;-74
2023/01/10 02:07:55;;;;;;;4.57;1.45;;;22.70;59.50;;;;;;5071522;28;20047;-73
2023/01/10 02:10:32;;;;;;;4.35;1.30;;;22.70;59.20;;;;;;5071238;28;20119;-74
2023/01/10 02:13:03;;;;;;;3.22;1.42;;;22.60;58.20;;;;;;5069723;28;20696;-74
2023/01/10 02:15:30;;;;;;;4.35;1.80;;;22.70;59.20;;;;;;5069308;28;20045;-74
2023/01/10 02:17:57;;;;;;;4.78;1.35;;;22.50;56.10;;;;;;5071344;28;20085;-74
2023/01/10 02:20:23;;;;;;;5.20;1.67;;;22.60;59.20;;;;;;5051632;28;20033;-74
2023/01/10 02:23:35;;;;;;;3.22;1.30;;;22.40;59.70;;;;;;5070993;28;20111;-74
2023/01/10 02:26:28;;;;;;;4.18;1.30;;;22.40;59.30;;;;;;5070937;28;20123;-74
2023/01/10 02:29:34;;;;;;;3.88;1.45;;;22.30;59.70;;;;;;5071108;28;20528;-73
2023/01/10 02:32:22;;;;;;;7.07;1.40;;;22.30;58.80;;;;;;5068998;28;20138;-74
2023/01/10 02:35:01;;;;;;;5.43;1.63;;;22.40;59.90;;;;;;5069941;28;20025;-73
2023/01/10 02:37:44;;;;;;;3.42;1.30;;;22.40;59.70;;;;;;4999027;28;20071;-74
2023/01/10 02:40:30;;;;;;;5.68;1.45;;;22.30;59.90;;;;;;5056049;28;20033;-74
2023/01/10 02:43:40;;;;;;;2.45;1.88;;;22.40;58.70;;;;;;5035073;28;20037;-74
2023/01/10 02:46:16;;;;;;;2.75;1.27;;;22.50;59.20;;;;;;4968472;28;20030;-74
2023/01/10 02:48:43;;;;;;;5.10;1.33;;;22.30;59.10;;;;;;4969108;28;20108;-74
2023/01/10 02:51:27;;;;;;;3.65;1.10;;;22.60;59.60;;;;;;4968318;28;20090;-72
2023/01/10 02:54:08;;;;;;;4.82;1.23;;;22.50;59.30;;;;;;4949907;28;20043;-74
2023/01/10 02:57:04;;;;;;;4.18;1.30;;;22.50;59.10;;;;;;4950308;28;20050;-74
2023/01/10 02:59:50;;;;;;;5.97;1.40;;;22.50;59.30;;;;;;4934038;29;20058;-74
2023/01/10 03:02:37;;;;;;;4.13;1.33;;;22.40;58.40;;;;;;4949207;28;20028;-73
2023/01/10 03:05:35;;;;;;;5.50;1.73;;;22.50;58.70;;;;;;4949837;29;20091;-74
2023/01/10 03:08:15;;;;;;;4.00;1.55;;;22.30;58.70;;;;;;4949809;28;20106;-74
2023/01/10 03:10:51;;;;;;;4.15;1.63;;;22.40;59.50;;;;;;4956433;28;20059;-74
2023/01/10 03:13:39;;;;;;;5.95;1.38;;;22.30;59.60;;;;;;4968725;28;20051;-74
2023/01/10 03:16:09;;;;;;;4.43;1.50;;;22.30;59.40;;;;;;4969618;28;20060;-72
2023/01/10 03:18:53;;;;;;;3.97;1.65;;;22.20;59.40;;;;;;4978630;28;20086;-74
2023/01/10 03:21:21;;;;;;;3.53;1.50;;;22.20;59.50;;;;;;5016850;28;20126;-74
2023/01/10 03:23:49;;;;;;;5.82;1.60;;;22.10;59.40;;;;;;5008579;28;20038;-74
2023/01/10 03:26:18;;;;;;;4.22;1.25;;;22.10;59.00;;;;;;5027402;28;20500;-73
2023/01/10 03:28:51;;;;;;;4.20;1.80;;;22.20;59.60;;;;;;5034379;28;20029;-74
2023/01/10 03:31:33;;;;;;;4.15;1.38;;;22.20;59.50;;;;;;5046438;28;20037;-74
2023/01/10 03:33:59;;;;;;;3.35;1.35;;;22.20;59.70;;;;;;5050131;28;20052;-73
2023/01/10 03:36:42;;;;;;;6.68;2.13;;;22.20;58.50;;;;;;5030218;28;20025;-74
2023/01/10 03:39:08;;;;;;;5.60;1.90;;;22.20;57.20;;;;;;5045968;28;20112;-73
2023/01/10 03:41:57;;;;;;;4.95;1.80;;;22.20;58.80;;;;;;5047629;28;20124;-74
2023/01/10 03:44:44;;;;;;;3.63;2.00;;;22.20;58.80;;;;;;5047646;28;20025;-74
2023/01/10 03:47:29;;;;;;;2.35;1.25;;;22.40;59.10;;;;;;5045977;28;20068;-74
2023/01/10 03:50:01;;;;;;;7.03;1.60;;;22.30;58.90;;;;;;5046977;28;20371;-74
2023/01/10 03:52:28;;;;;;;3.38;1.73;;;22.20;59.10;;;;;;5052951;28;20481;-74
2023/01/10 03:54:54;;;;;;;3.72;1.38;;;22.30;58.70;;;;;;5079605;28;20058;-74
2023/01/10 03:57:22;;;;;;;5.53;1.88;;;22.20;57.90;;;;;;5069033;28;20029;-74
2023/01/10 03:59:52;;;;;;;3.55;1.60;;;22.20;58.70;;;;;;5049958;28;20043;-74
2023/01/10 04:02:19;;;;;;;5.60;1.65;;;22.10;58.20;;;;;;5086809;28;20505;-74
2023/01/10 04:04:45;;;;;;;7.60;1.60;;;22.20;58.60;;;;;;5086959;28;20025;-74
2023/01/10 04:07:11;;;;;;;4.93;1.52;;;22.10;57.80;;;;;;5089739;28;20044;-74
2023/01/10 04:09:37;;;;;;;5.03;2.05;;;22.00;58.70;;;;;;5091175;28;20035;-73
2023/01/10 04:12:03;;;;;;;6.75;1.65;;;22.00;58.40;;;;;;5072842;28;20082;-74
2023/01/10 04:14:31;;;;;;;3.95;1.90;;;22.00;58.30;;;;;;5072444;28;20020;-74
2023/01/10 04:16:58;;;;;;;2.83;1.35;;;21.90;57.90;;;;;;5071222;28;20031;-74
2023/01/10 04:19:24;;;;;;;6.55;2.10;;;22.00;57.30;;;;;;5072823;28;20105;-75
2023/01/10 04:21:50;;;;;;;3.15;1.17;;;21.90;57.80;;;;;;5070790;28;20480;-74
2023/01/10 04:24:16;;;;;;;5.53;2.30;;;22.00;59.30;;;;;;5020002;28;20497;-73
2023/01/10 04:26:43;;;;;;;6.97;2.22;;;22.00;57.80;;;;;;5072566;28;20044;-74
2023/01/10 04:29:10;;;;;;;4.65;1.60;;;21.90;59.00;;;;;;5072959;28;20032;-73
2023/01/10 04:31:36;;;;;;;3.35;1.63;;;22.00;58.30;;;;;;5069941;28;20369;-73
2023/01/10 04:34:02;;;;;;;4.68;3.05;;;22.10;58.70;;;;;;5072823;28;20551;-73
2023/01/10 04:36:28;;;;;;;4.43;1.40;;;22.10;58.00;;;;;;5072255;28;20029;-74
2023/01/10 04:38:54;;;;;;;6.93;2.33;;;22.10;58.20;;;;;;5073012;28;20361;-74
2023/01/10 04:41:20;;;;;;;8.90;2.20;;;22.20;58.70;;;;;;5038297;28;20358;-74
2023/01/10 04:43:46;;;;;;;0.77;0.75;;;22.20;58.50;;;;;;5072773;28;20036;-74
2023/01/10 04:46:12;;;;;;;6.53;2.00;;;22.20;58.00;;;;;;5069898;28;20115;-74
2023/01/10 04:48:38;;;;;;;4.10;1.45;;;22.20;58.00;;;;;;5072548;28;20040;-73
2023/01/10 04:51:04;;;;;;;3.28;2.00;;;22.20;54.50;;;;;;5071194;28;20028;-73
2023/01/10 04:53:30;;;;;;;3.38;2.00;;;22.10;57.70;;;;;;5073057;28;20032;-74
2023/01/10 04:56:04;;;;;;;5.22;1.83;;;22.10;58.70;;;;;;5072673;28;20036;-73
2023/01/10 04:58:35;;;;;;;8.02;1.92;;;22.10;59.10;;;;;;5059216;28;20043;-73
2023/01/10 05:01:17;;;;;;;3.47;1.25;;;22.00;57.80;;;;;;5060141;28;20489;-74
2023/01/10 05:03:43;;;;;;;2.55;1.60;;;22.00;58.30;;;;;;5072553;28;20095;-74
2023/01/10 05:06:09;;;;;;;8.55;1.92;;;21.90;59.10;;;;;;5009291;28;20050;-74
2023/01/10 05:08:35;;;;;;;3.78;1.13;;;21.90;59.40;;;;;;5010024;28;20082;-74
2023/01/10 05:11:01;;;;;;;7.60;1.80;;;21.90;59.40;;;;;;5038251;28;20069;-74
2023/01/10 05:13:27;;;;;;;5.70;2.25;;;21.90;59.00;;;;;;5028312;28;20411;-74
2023/01/10 05:15:55;;;;;;;5.70;2.13;;;22.00;58.40;;;;;;5035760;28;20051;-74
2023/01/10 05:18:21;;;;;;;5.00;2.17;;;22.00;58.70;;;;;;5049790;28;20112;-74
2023/01/10 05:20:47;;;;;;;5.30;2.05;;;22.20;57.80;;;;;;5032512;28;20076;-73
2023/01/10 05:23:13;;;;;;;5.15;2.05;;;22.00;58.50;;;;;;5016222;28;20459;-73
2023/01/10 05:25:39;;;;;;;4.50;1.83;;;22.00;56.90;;;;;;5049763;28;20065;-73
2023/01/10 05:28:05;;;;;;;6.15;1.83;;;22.10;57.70;;;;;;5049404;28;20458;-74
2023/01/10 05:30:31;;;;;;;6.22;1.33;;;22.10;57.70;;;;;;5048750;28;20039;-74
2023/01/10 05:32:57;;;;;;;2.88;1.50;;;22.20;58.30;;;;;;5029882;28;20597;-73
2023/01/10 05:35:23;;;;;;;6.45;1.83;;;22.20;58.10;;;;;;5028920;28;20395;-73
2023/01/10 05:37:49;;;;;;;9.93;1.95;;;22.20;58.20;;;;;;5063225;28;20048;-73
2023/01/10 05:40:15;;;;;;;3.47;1.63;;;22.10;56.30;;;;;;5071151;28;20055;-73
2023/01/10 05:42:41;;;;;;;6.03;1.67;;;22.10;58.30;;;;;;5091005;28;20544;-73
2023/01/10 05:45:08;;;;;;;4.53;1.58;;;22.10;53.10;;;;;;5052722;28;20040;-73
2023/01/10 05:47:34;;;;;;;2.45;1.00;;;22.00;51.00;;;;;;5076373;28;20040;-72
2023/01/10 05:50:00;;;;;;;2.85;1.35;;;22.10;50.20;;;;;;5051608;28;20052;-74
2023/01/10 05:52:26;;;;;;;4.82;1.45;;;22.00;46.40;;;;;;5090870;28;20047;-74
2023/01/10 05:54:52;;;;;;;2.72;1.60;;;22.10;47.80;;;;;;5077877;28;20058;-76
2023/01/10 05:57:18;;;;;;;3.10;1.15;;;22.00;47.00;;;;;;5073273;28;20060;-79
2023/01/10 05:59:44;;;;;;;2.13;1.73;;;22.00;47.00;;;;;;5084426;28;20461;-76
2023/01/10 06:02:10;;;;;;;5.60;1.30;;;22.00;48.80;;;;;;5074637;28;20061;-73
2023/01/10 06:04:36;;;;;;;3.58;1.85;;;22.00;47.90;;;;;;5090021;28;20070;-70
2023/01/10 06:07:02;;;;;;;6.40;2.80;;;22.00;47.20;;;;;;5090202;28;20091;-71
2023/01/10 06:09:28;;;;;;;4.78;2.92;;;22.00;47.40;;;;;;5089993;28;20032;-72
2023/01/10 06:11:54;;;;;;;5.40;4.20;;;22.10;46.40;;;;;;5071201;28;20036;-73
2023/01/10 06:14:20;;;;;;;12.70;7.55;;;22.10;45.40;;;;;;5071151;28;20029;-72
2023/01/10 06:16:46;;;;;;;22.38;11.75;;;22.10;48.40;;;;;;5069188;28;20055;-74
2023/01/10 06:19:13;;;;;;;1.63;1.13;;;22.20;47.80;;;;;;5071409;28;20039;-73
2023/01/10 06:21:39;;;;;;;3.85;1.70;;;22.40;58.70;;;;;;5067550;28;20086;-76
2023/01/10 06:24:05;;;;;;;1.55;0.98;;;22.40;58.90;;;;;;5071200;28;20032;-82
2023/01/10 06:26:31;;;;;;;4.38;1.45;;;22.50;58.30;;;;;;5070657;28;20036;-78
2023/01/10 06:28:58;;;;;;;9.68;2.00;;;22.50;58.60;;;;;;5071262;28;20059;-78
2023/01/10 06:31:25;;;;;;;4.57;1.38;;;22.60;56.10;;;;;;5015913;28;20087;-74
2023/01/10 06:33:51;;;;;;;2.72;1.45;;;22.70;56.20;;;;;;5067626;28;20771;-80
2023/01/10 06:36:18;;;;;;;3.75;1.65;;;22.70;54.70;;;;;;5060301;28;20071;-77
2023/01/10 06:38:44;;;;;;;5.38;1.70;;;22.70;53.30;;;;;;5051113;28;20029;-74
2023/01/10 06:41:12;;;;;;;6.40;1.83;;;22.60;52.90;;;;;;5050625;28;20029;-72
2023/01/10 06:43:46;;;;;;;4.72;2.05;;;22.70;52.40;;;;;;5057822;28;20017;-73
2023/01/10 06:46:15;;;;;;;8.20;1.73;;;22.60;50.50;;;;;;5066030;28;20059;-74
2023/01/10 06:48:43;;;;;;;2.15;0.90;;;22.50;52.50;;;;;;5070838;28;20033;-74
2023/01/10 06:51:10;;;;;;;4.28;1.70;;;22.50;52.30;;;;;;5069710;28;20071;-75
2023/01/10 06:53:36;;;;;;;2.60;1.42;;;22.50;52.10;;;;;;5070705;28;20059;-74
2023/01/10 06:56:02;;;;;;;3.75;1.90;;;22.50;54.00;;;;;;5070169;28;20036;-72
2023/01/10 06:58:28;;;;;;;2.30;1.50;;;22.30;56.90;;;;;;5052676;28;20037;-72
2023/01/10 07:00:54;;;;;;;4.50;2.30;;;22.50;61.50;;;;;;5017440;28;20037;-77
2023/01/10 07:03:20;;;;;;;6.60;2.30;;;22.60;63.80;;;;;;5068199;28;20075;-76
2023/01/10 07:05:46;;;;;;;4.90;2.10;;;22.70;61.30;;;;;;5066033;28;20472;-76
2023/01/10 07:08:12;;;;;;;4.45;1.73;;;22.60;58.80;;;;;;5053410;28;20041;-73
2023/01/10 07:10:40;;;;;;;1.65;1.10;;;22.60;58.40;;;;;;5050608;28;20109;-73
2023/01/10 07:13:06;;;;;;;3.10;2.08;;;22.50;57.40;;;;;;5050543;28;20475;-72
2023/01/10 07:15:32;;;;;;;1.85;1.40;;;22.70;58.40;;;;;;5050001;28;20087;-73
2023/01/10 07:17:59;;;;;;;3.65;1.92;;;22.70;55.80;;;;;;5067583;28;20186;-71
2023/01/10 07:20:25;;;;;;;3.45;1.85;;;22.70;56.60;;;;;;5077416;28;20458;-72
2023/01/10 07:22:56;;;;;;;4.45;1.48;;;22.70;52.60;;;;;;5054654;28;20029;-72
2023/01/10 07:25:24;;;;;;;5.95;2.10;;;22.70;56.10;;;;;;5055144;28;20470;-71
2023/01/10 07:27:50;;;;;;;2.35;1.10;;;22.70;54.80;;;;;;5051768;28;20037;-72
2023/01/10 07:30:16;;;;;;;0.82;0.73;;;22.70;55.00;;;;;;5049673;28;20049;-72
2023/01/10 07:32:42;;;;;;;6.13;1.33;;;22.70;56.70;;;;;;5045084;28;20580;-72
2023/01/10 07:35:08;;;;;;;5.70;1.45;;;22.80;56.10;;;;;;5060452;28;20493;-73
2023/01/10 07:37:34;;;;;;;3.88;1.30;;;22.90;56.50;;;;;;5070726;28;20632;-74
2023/01/10 07:40:00;;;;;;;1.50;0.98;;;23.00;56.10;;;;;;5074124;28;20028;-74
2023/01/10 07:42:26;;;;;;;0.93;0.68;;;23.10;57.30;;;;;;5076737;28;20024;-75
2023/01/10 07:44:52;;;;;;;4.22;1.48;;;23.00;57.40;;;;;;5061502;28;20037;-75
2023/01/10 07:47:18;;;;;;;3.67;1.63;;;23.00;57.40;;;;;;5053732;28;20048;-74
2023/01/10 07:49:44;;;;;;;1.52;1.20;;;23.00;57.40;;;;;;5018318;28;20041;-73
2023/01/10 07:52:10;;;;;;;3.70;1.15;;;23.10;57.60;;;;;;5064517;28;20055;-72
2023/01/10 07:54:36;;;;;;;2.00;1.48;;;23.10;57.50;;;;;;5073491;28;20044;-75
2023/01/10 07:57:02;;;;;;;3.53;1.08;;;23.10;56.70;;;;;;5073618;28;20040;-75
2023/01/10 07:59:28;;;;;;;2.88;1.30;;;23.00;57.20;;;;;;5058522;28;20029;-73
2023/01/10 08:01:54;;;;;;;2.60;1.00;;;23.10;56.30;;;;;;5035305;28;20039;-73
2023/01/10 08:04:20;;;;;;;3.00;1.52;;;23.30;56.90;;;;;;5018467;28;20157;-75
2023/01/10 08:06:46;;;;;;;2.47;1.55;;;23.10;56.70;;;;;;5052955;28;20124;-72
2023/01/10 08:09:12;;;;;;;0.88;0.88;;;23.30;57.30;;;;;;5052444;28;20043;-72
2023/01/10 08:11:38;;;;;;;1.50;1.17;;;23.20;57.30;;;;;;5052839;28;20045;-72
2023/01/10 08:14:04;;;;;;;0.40;0.40;;;23.10;57.40;;;;;;5053300;28;20537;-72
2023/01/10 08:16:30;;;;;;;1.58;1.13;;;23.20;56.90;;;;;;5053413;28;20050;-74
2023/01/10 08:18:56;;;;;;;4.70;2.00;;;23.10;57.30;;;;;;5053374;28;20028;-72
2023/01/10 08:21:22;;;;;;;2.05;1.30;;;23.20;56.90;;;;;;5058530;28;20374;-72
2023/01/10 08:23:50;;;;;;;4.55;1.80;;;23.20;56.80;;;;;;5065604;28;20040;-73
2023/01/10 08:26:17;;;;;;;1.88;1.45;;;23.20;56.80;;;;;;5062251;28;20043;-76
2023/01/10 08:28:43;;;;;;;1.70;1.17;;;23.20;57.80;;;;;;5017654;28;20619;-72
2023/01/10 08:31:09;;;;;;;2.40;1.80;;;23.10;57.90;;;;;;5053278;28;20033;-71
2023/01/10 08:33:39;;;;;;;2.13;1.73;;;23.20;57.70;;;;;;5053067;28;20029;-73
2023/01/10 08:36:13;;;;;;;1.20;0.73;;;23.10;57.00;;;;;;5052755;28;20037;-72
2023/01/10 08:38:39;;;;;;;5.57;1.70;;;23.20;58.10;;;;;;5053037;28;20029;-76
2023/01/10 08:41:05;;;;;;;1.90;0.90;;;23.20;57.20;;;;;;5052849;28;20045;-75
2023/01/10 08:43:31;;;;;;;0.75;0.75;;;23.20;58.30;;;;;;5055456;28;20047;-73
2023/01/10 08:45:57;;;;;;;1.17;0.75;;;23.30;58.60;;;;;;5071261;28;20035;-73
2023/01/10 08:48:23;;;;;;;1.55;1.10;;;23.40;58.60;;;;;;5072172;28;20417;-72
2023/01/10 08:50:48;;;;;;;2.17;1.40;;;23.40;58.70;;;;;;5072833;28;20428;-73
2023/01/10 08:53:14;;;;;;;1.40;1.30;;;23.30;58.80;;;;;;5066157;28;20082;-73
2023/01/10 08:55:40;;;;;;;1.10;1.00;;;23.30;58.50;;;;;;5034589;28;20081;-74
2023/01/10 08:58:08;;;;;;;1.30;1.08;;;23.40;58.80;;;;;;5068034;28;20048;-73
2023/01/10 09:00:34;;;;;;;3.38;1.80;;;23.50;59.30;;;;;;5056453;28;20039;-73
2023/01/10 09:03:00;;;;;;;2.92;1.83;;;23.50;59.90;;;;;;5049882;28;20095;-72
2023/01/10 09:05:26;;;;;;;5.97;2.45;;;23.50;60.40;;;;;;5059879;28;20032;-72
2023/01/10 09:07:57;;;;;;;2.17;1.65;;;23.50;60.10;;;;;;5052274;28;20033;-73
2023/01/10 09:10:23;;;;;;;2.65;1.70;;;23.50;60.40;;;;;;5050005;28;20055;-73
2023/01/10 09:12:54;;;;;;;1.30;1.13;;;23.40;60.20;;;;;;5076550;28;20028;-73
2023/01/10 09:15:22;;;;;;;2.15;1.20;;;23.40;59.40;;;;;;5073080;28;20028;-73
2023/01/10 09:17:48;;;;;;;2.97;1.90;;;23.50;60.00;;;;;;5081392;28;20043;-73
2023/01/10 09:20:15;;;;;;;1.67;1.50;;;23.30;60.00;;;;;;5089010;28;20538;-72
2023/01/10 09:22:41;;;;;;;1.77;1.20;;;23.20;58.80;;;;;;5072544;28;20089;-72
2023/01/10 09:25:07;;;;;;;2.60;1.60;;;23.10;60.10;;;;;;5072127;28;20032;-74
2023/01/10 09:27:33;;;;;;;1.45;1.33;;;23.00;62.20;;;;;;5092794;28;20044;-73
2023/01/10 09:29:59;;;;;;;2.38;1.20;;;22.90;63.20;;;;;;5092822;28;20036;-73
2023/01/10 09:32:25;;;;;;;0.88;0.88;;;22.90;64.50;;;;;;5083238;28;20031;-73
2023/01/10 09:34:51;;;;;;;1.60;1.30;;;23.00;64.70;;;;;;5072141;28;20039;-73
2023/01/10 09:37:17;;;;;;;1.02;0.98;;;23.00;62.20;;;;;;5072124;28;20033;-70
2023/01/10 09:39:43;;;;;;;2.38;1.27;;;23.10;59.00;;;;;;5080723;28;20029;-71
2023/01/10 09:42:46;;;;;;;2.10;1.65;;;23.10;61.40;;;;;;5090950;28;20059;-71
2023/01/10 09:45:24;;;;;;;17.17;7.78;;;23.10;59.50;;;;;;5073058;28;20377;-71
2023/01/10 09:48:04;;;;;;;4.18;2.22;;;23.00;57.60;;;;;;5073886;28;20037;-71
2023/01/10 09:50:45;;;;;;;1.70;1.50;;;22.80;57.60;;;;;;5099795;28;20123;-71
2023/01/10 09:53:13;;;;;;;1.40;1.30;;;22.70;60.90;;;;;;5112165;28;20106;-71
2023/01/10 09:55:41;;;;;;;1.30;1.10;;;22.50;61.20;;;;;;5099091;28;20033;-71
2023/01/10 09:58:18;;;;;;;2.30;1.48;;;22.50;61.40;;;;;;5053461;28;20089;-71
2023/01/10 10:00:52;;;;;;;1.48;1.23;;;22.50;62.20;;;;;;5071080;28;20161;-71
2023/01/10 10:03:29;;;;;;;1.02;0.93;;;22.60;62.10;;;;;;5070225;28;20025;-71
2023/01/10 10:05:56;;;;;;;2.97;1.13;;;22.70;61.00;;;;;;5071834;28;20027;-71
2023/01/10 10:08:22;;;;;;;1.75;0.98;;;22.70;60.80;;;;;;5071334;28;20397;-71
2023/01/10 10:10:54;;;;;;;2.08;1.65;;;22.80;60.30;;;;;;5059474;28;20465;-70
2023/01/10 10:13:57;;;;;;;1.15;0.90;;;22.90;60.30;;;;;;5051644;28;20028;-72
2023/01/10 10:16:54;;;;;;;1.48;1.17;;;22.90;59.90;;;;;;5051436;28;20135;-71
2023/01/10 10:19:42;;;;;;;2.95;1.95;;;23.00;54.60;;;;;;5054269;28;20055;-72
2023/01/10 10:22:16;;;;;;;15.55;4.32;;;23.30;55.60;;;;;;5051276;28;20139;-71
2023/01/10 10:24:50;;;;;;;12.48;6.18;;;23.60;56.20;;;;;;5015646;28;20123;-74
2023/01/10 10:27:38;;;;;;;18.17;7.32;;;23.70;49.10;;;;;;5069880;28;20051;-69
2023/01/10 10:30:17;;;;;;;10.60;4.13;;;23.60;45.90;;;;;;5056789;28;20044;-73
2023/01/10 10:32:58;;;;;;;5.18;2.90;;;23.60;44.70;;;;;;5036305;28;20037;-72
2023/01/10 10:35:36;;;;;;;3.53;2.50;;;23.60;44.20;;;;;;5064604;28;20111;-74
2023/01/10 10:38:31;;;;;;;1.13;1.05;;;23.60;56.20;;;;;;5051018;28;20047;-74
2023/01/10 10:40:59;;;;;;;3.08;1.40;;;23.80;61.20;;;;;;5040437;28;20104;-73
2023/01/10 10:43:32;;;;;;;1.98;1.42;;;24.00;66.70;;;;;;5052617;28;20028;-75
2023/01/10 10:46:08;;;;;;;2.03;1.48;;;24.30;69.60;;;;;;5056295;28;20104;-75
2023/01/10 10:49:08;;;;;;;4.30;2.22;;;24.30;61.30;;;;;;5032572;28;20101;-76
2023/01/10 10:51:42;;;;;;;36.45;8.18;;;24.30;61.70;;;;;;5031196;28;20124;-74
2023/01/10 10:54:11;;;;;;;5.10;2.78;;;24.50;49.70;;;;;;5068255;28;20037;-74
2023/01/10 10:56:37;;;;;;;4.65;2.03;;;24.30;48.80;;;;;;5028404;28;20041;-72
2023/01/10 10:59:04;;;;;;;1.85;1.58;;;24.20;47.90;;;;;;5020023;28;20542;-74
2023/01/10 11:01:30;;;;;;;1.95;1.58;;;24.10;47.00;;;;;;5003603;28;20037;-74
2023/01/10 11:04:04;;;;;;;2.33;1.70;;;24.10;47.20;;;;;;5027093;28;20160;-73
2023/01/10 11:06:31;;;;;;;3.00;2.00;;;24.00;47.30;;;;;;5009608;28;20037;-74
2023/01/10 11:09:01;;;;;;;1.88;1.65;;;23.90;46.00;;;;;;5024647;28;20042;-73
2023/01/10 11:11:38;;;;;;;1.25;1.15;;;23.90;46.40;;;;;;5031498;28;20049;-73
2023/01/10 11:14:07;;;;;;;2.17;1.42;;;23.90;47.80;;;;;;5034655;28;20037;-73
2023/01/10 11:16:38;;;;;;;2.67;1.70;;;23.80;46.20;;;;;;5039696;28;20051;-73
2023/01/10 11:19:14;;;;;;;2.78;1.88;;;23.70;46.90;;;;;;5032350;28;20132;-72
2023/01/10 11:21:40;;;;;;;2.05;1.73;;;23.80;45.70;;;;;;5032282;28;20045;-74
2023/01/10 11:24:26;;;;;;;3.00;1.75;;;23.70;45.20;;;;;;5033088;28;20031;-73
2023/01/10 11:26:55;;;;;;;2.33;2.13;;;23.50;45.40;;;;;;5045608;28;20505;-74
2023/01/10 11:29:25;;;;;;;2.05;1.88;;;23.50;46.10;;;;;;5026289;28;20060;-73
2023/01/10 11:31:54;;;;;;;7.75;2.25;;;23.50;45.70;;;;;;5031339;28;20039;-71
2023/01/10 11:34:24;;;;;;;3.17;1.65;;;23.40;47.20;;;;;;5074739;28;20068;-74
2023/01/10 11:37:17;;;;;;;4.55;1.50;;;23.60;46.40;;;;;;5077647;28;20035;-74
2023/01/10 11:39:43;;;;;;;3.83;1.40;;;23.60;45.00;;;;;;5012520;28;20407;-75
2023/01/10 11:42:38;;;;;;;2.90;1.60;;;23.60;44.00;;;;;;5011886;28;20077;-74
2023/01/10 11:45:16;;;;;;;1.55;1.30;;;23.50;42.90;;;;;;4991010;28;20124;-71
2023/01/10 11:47:53;;;;;;;2.95;1.75;;;23.40;42.40;;;;;;4971707;28;20050;-74
2023/01/10 11:50:23;;;;;;;3.78;1.70;;;23.30;43.70;;;;;;4990267;28;20096;-73
2023/01/10 11:52:49;;;;;;;1.05;0.95;;;23.40;55.10;;;;;;4991804;28;20514;-73
2023/01/10 11:55:36;;;;;;;1.70;1.60;;;23.70;56.20;;;;;;4991843;28;20050;-73
2023/01/10 11:58:07;;;;;;;2.15;1.42;;;23.70;56.60;;;;;;4992253;28;20042;-73
2023/01/10 12:00:54;;;;;;;2.35;1.38;;;23.90;56.50;;;;;;4974373;28;20068;-76
2023/01/10 12:03:39;;;;;;;5.40;1.10;;;23.80;57.10;;;;;;4989314;28;20046;-70
2023/01/10 12:06:15;;;;;;;2.05;1.27;;;23.90;57.30;;;;;;4991505;28;20071;-72
2023/01/10 12:08:41;;;;;;;1.33;1.23;;;23.90;57.40;;;;;;4992087;28;20480;-74
2023/01/10 12:11:15;;;;;;;2.97;1.70;;;23.90;57.30;;;;;;4975919;28;20054;-74
2023/01/10 12:13:49;;;;;;;1.42;1.17;;;23.90;57.40;;;;;;4991517;28;20058;-75
2023/01/10 12:16:26;;;;;;;1.75;1.10;;;23.80;57.10;;;;;;5009587;28;20493;-75
2023/01/10 12:18:55;;;;;;;1.98;1.45;;;23.90;57.60;;;;;;5049553;28;20033;-76
2023/01/10 12:21:30;;;;;;;1.73;1.48;;;23.90;57.50;;;;;;5065019;28;20045;-74
2023/01/10 12:24:01;;;;;;;2.20;1.52;;;23.90;57.50;;;;;;5079838;28;20126;-71
2023/01/10 12:26:30;;;;;;;1.55;1.23;;;23.90;57.40;;;;;;5087713;28;20107;-74
2023/01/10 12:29:02;;;;;;;2.95;1.33;;;23.90;57.40;;;;;;5087110;28;20040;-72
2023/01/10 12:31:31;;;;;;;1.13;1.07;;;23.90;57.50;;;;;;5074213;28;20052;-72
2023/01/10 12:34:25;;;;;;;1.63;1.52;;;24.00;57.30;;;;;;5091553;28;20067;-72
2023/01/10 12:37:15;;;;;;;1.95;1.52;;;23.90;57.30;;;;;;5010377;28;20068;-73
2023/01/10 12:40:05;;;;;;;2.17;1.65;;;23.90;57.60;;;;;;5007514;28;20041;-72
2023/01/10 12:45:34;;;;;;;1.50;1.40;;;24.00;56.80;;;;;;4997741;28;20080;-72
2023/01/10 12:48:22;;;;;;;2.20;0.88;;;23.90;57.50;;;;;;5009779;28;20054;-75
2023/01/10 12:51:04;;;;;;;1.33;1.08;;;23.90;57.60;;;;;;5010977;28;20072;-74
2023/01/10 12:53:35;;;;;;;1.15;1.05;;;23.90;57.50;;;;;;5008741;28;20077;-73
2023/01/10 12:56:06;;;;;;;2.28;1.20;;;23.80;57.20;;;;;;5011173;28;20041;-74
2023/01/10 12:58:35;;;;;;;2.30;1.50;;;23.70;57.50;;;;;;4992686;28;20041;-75
2023/01/10 13:01:02;;;;;;;1.65;1.30;;;23.80;57.50;;;;;;4995455;28;20597;-79
2023/01/10 13:03:30;;;;;;;2.80;1.98;;;23.70;57.30;;;;;;4992069;28;20039;-76
2023/01/10 13:05:58;;;;;;;5.70;2.45;;;23.70;57.50;;;;;;4994085;28;20038;-73
2023/01/10 13:08:31;;;;;;;1.50;0.98;;;23.70;57.00;;;;;;4999750;28;20057;-76
2023/01/10 13:10:57;;;;;;;;;;;23.60;57.80;;;;;;5001029;28;20058;-76
2023/01/10 13:13:38;;;;;;;2.70;2.15;;;23.60;58.10;;;;;;5038252;28;19908;-76
2023/01/10 13:16:25;;;;;;;3.78;2.58;;;23.50;57.20;;;;;;5091016;28;20503;-74